createdAt,value
2018-11-23T00:00:29.960Z,101306.81
2018-11-23T00:02:59.732Z,101309.82
2018-11-23T00:05:28.780Z,101309.72
2018-11-23T00:07:58.649Z,101312.69
2018-11-23T00:10:29.124Z,101311.37
2018-11-23T00:12:58.238Z,101316.39
2018-11-23T00:15:27.400Z,101325.48
2018-11-23T00:17:56.357Z,101327.65
2018-11-23T00:20:27.533Z,101330.38
2018-11-23T00:22:56.684Z,101332.30
2018-11-23T00:25:26.575Z,101332.06
2018-11-23T00:27:56.441Z,101326.80
2018-11-23T00:30:26.553Z,101333.37
2018-11-23T00:32:56.259Z,101338.28
2018-11-23T00:35:41.564Z,101337.66
2018-11-23T00:38:10.519Z,101338.14
2018-11-23T00:40:39.671Z,101345.33
2018-11-23T00:43:08.795Z,101344.26
2018-11-23T00:45:42.813Z,101341.38
2018-11-23T00:48:06.991Z,101344.11
2018-11-23T00:50:36.172Z,101341.33
2018-11-23T00:53:05.320Z,101337.33
2018-11-23T00:55:34.405Z,101336.92
2018-11-23T00:58:03.642Z,101336.61
2018-11-23T01:00:34.020Z,101333.13
2018-11-23T01:03:04.207Z,101335.05
2018-11-23T01:05:33.396Z,101338.84
2018-11-23T01:08:02.567Z,101336.08
2018-11-23T01:10:31.921Z,101340.65
2018-11-23T01:13:01.368Z,101337.52
2018-11-23T01:15:34.496Z,101330.55
2018-11-23T01:18:03.659Z,101326.63
2018-11-23T01:20:32.905Z,101326.44
2018-11-23T01:23:02.199Z,101325.97
2018-11-23T01:25:31.364Z,101329.09
2018-11-23T01:28:00.438Z,101332.04
2018-11-23T01:30:31.792Z,101333.62
2018-11-23T01:33:01.045Z,101331.30
2018-11-23T01:35:30.670Z,101333.16
2018-11-23T01:37:59.791Z,101324.00
2018-11-23T01:40:30.709Z,101328.17
2018-11-23T01:43:00.279Z,101327.81
2018-11-23T01:45:30.562Z,101326.13
2018-11-23T01:47:59.555Z,101325.17
2018-11-23T01:50:30.201Z,101325.53
2018-11-23T01:52:59.605Z,101326.06
2018-11-23T01:55:28.942Z,101329.55
2018-11-23T01:57:57.992Z,101325.58
2018-11-23T02:00:28.696Z,101320.66
2018-11-23T02:02:58.085Z,101324.95
2018-11-23T02:05:27.530Z,101325.64
2018-11-23T02:07:56.559Z,101322.88
2018-11-23T02:10:25.588Z,101318.44
2018-11-23T02:12:54.748Z,101315.70
2018-11-23T02:15:24.100Z,101315.08
2018-11-23T02:17:53.297Z,101313.50
2018-11-23T02:20:23.152Z,101311.39
2018-11-23T02:22:53.187Z,101313.28
2018-11-23T02:25:22.221Z,101308.48
2018-11-23T02:27:51.440Z,101307.18
2018-11-23T02:30:24.091Z,101303.46
2018-11-23T02:32:53.231Z,101301.78
2018-11-23T02:35:24.282Z,101304.32
2018-11-23T02:37:53.215Z,101301.13
2018-11-23T02:40:22.488Z,101292.05
2018-11-23T02:42:51.489Z,101300.17
2018-11-23T02:45:21.814Z,101303.23
2018-11-23T02:47:50.979Z,101307.73
2018-11-23T02:50:19.981Z,101307.05
2018-11-23T02:52:49.169Z,101300.87
2018-11-23T02:55:22.276Z,101306.05
2018-11-23T02:57:51.451Z,101306.53
2018-11-23T03:00:21.826Z,101306.91
2018-11-23T03:02:50.866Z,101306.67
2018-11-23T03:05:21.425Z,101301.80
2018-11-23T03:07:50.536Z,101296.80
2018-11-23T03:10:19.638Z,101290.47
2018-11-23T03:12:49.251Z,101292.77
2018-11-23T03:15:19.551Z,101292.39
2018-11-23T03:17:48.899Z,101286.80
2018-11-23T03:20:19.651Z,101288.68
2018-11-23T03:22:48.760Z,101284.16
2018-11-23T03:25:17.776Z,101286.19
2018-11-23T03:27:46.962Z,101281.30
2018-11-23T03:30:23.739Z,101285.94
2018-11-23T03:32:53.652Z,101288.56
2018-11-23T03:35:23.472Z,101285.59
2018-11-23T03:37:52.450Z,101289.88
2018-11-23T03:40:22.431Z,101294.09
2018-11-23T03:42:51.605Z,101286.44
2018-11-23T03:45:20.637Z,101292.62
2018-11-23T03:47:49.682Z,101293.47
2018-11-23T03:50:18.842Z,101299.45
2018-11-23T03:52:48.262Z,101299.32
2018-11-23T03:55:17.225Z,101298.86
2018-11-23T03:57:46.536Z,101295.15
2018-11-23T04:00:19.349Z,101294.77
2018-11-23T04:02:49.059Z,101290.48
2018-11-23T04:05:18.421Z,101291.81
2018-11-23T04:07:47.796Z,101294.30
2018-11-23T04:10:18.318Z,101293.22
2018-11-23T04:12:47.319Z,101289.16
2018-11-23T04:15:16.607Z,101289.77
2018-11-23T04:17:45.735Z,101287.16
2018-11-23T04:20:15.973Z,101284.77
2018-11-23T04:22:44.874Z,101291.33
2018-11-23T04:25:15.075Z,101290.59
2018-11-23T04:27:44.662Z,101293.48
2018-11-23T04:30:15.532Z,101290.23
2018-11-23T04:32:44.910Z,101294.41
2018-11-23T04:35:15.360Z,101290.35
2018-11-23T04:37:45.097Z,101283.55
2018-11-23T04:40:15.180Z,101279.23
2018-11-23T04:42:44.537Z,101287.37
2018-11-23T04:45:14.600Z,101280.68
2018-11-23T04:47:43.700Z,101282.14
2018-11-23T04:50:14.704Z,101287.02
2018-11-23T04:52:43.888Z,101282.14
2018-11-23T04:55:13.011Z,101274.02
2018-11-23T04:57:42.766Z,101279.26
2018-11-23T05:00:14.333Z,101271.23
2018-11-23T05:02:44.350Z,101274.47
2018-11-23T05:05:13.803Z,101273.86
2018-11-23T05:07:44.133Z,101274.00
2018-11-23T05:10:14.555Z,101274.61
2018-11-23T05:12:43.726Z,101276.25
2018-11-23T05:15:14.759Z,101280.92
2018-11-23T05:17:43.994Z,101276.12
2018-11-23T05:20:13.846Z,101280.06
2018-11-23T05:22:43.336Z,101279.96
2018-11-23T05:25:13.627Z,101279.61
2018-11-23T05:27:42.842Z,101278.30
2018-11-23T05:30:14.588Z,101270.87
2018-11-23T05:32:43.704Z,101270.76
2018-11-23T05:35:14.027Z,101261.92
2018-11-23T05:37:43.055Z,101255.81
2018-11-23T05:40:14.396Z,101256.29
2018-11-23T05:42:43.439Z,101257.86
2018-11-23T05:45:14.968Z,101260.97
2018-11-23T05:47:44.102Z,101253.47
2018-11-23T05:50:21.450Z,101250.70
2018-11-23T05:52:50.511Z,101258.10
2018-11-23T05:55:19.779Z,101253.44
2018-11-23T05:57:48.799Z,101255.95
2018-11-23T06:00:20.708Z,101258.73
2018-11-23T06:02:49.854Z,101252.27
2018-11-23T06:05:18.974Z,101250.62
2018-11-23T06:07:48.078Z,101249.88
2018-11-23T06:10:18.455Z,101251.67
2018-11-23T06:12:47.434Z,101257.53
2018-11-23T06:15:19.747Z,101254.20
2018-11-23T06:17:49.299Z,101254.66
2018-11-23T06:20:20.421Z,101251.56
2018-11-23T06:22:50.438Z,101252.62
2018-11-23T06:25:36.715Z,101245.09
2018-11-23T06:28:06.088Z,101243.19
2018-11-23T06:30:35.187Z,101249.38
2018-11-23T06:33:16.825Z,101250.36
2018-11-23T06:35:45.915Z,101252.61
2018-11-23T06:38:15.143Z,101252.84
2018-11-23T06:40:44.223Z,101248.78
2018-11-23T06:43:13.317Z,101251.51
2018-11-23T06:45:43.881Z,101254.28
2018-11-23T06:48:12.907Z,101259.66
2018-11-23T06:50:42.174Z,101257.14
2018-11-23T06:53:11.336Z,101258.83
2018-11-23T06:55:40.443Z,101261.56
2018-11-23T06:58:09.522Z,101264.94
2018-11-23T07:00:38.654Z,101258.47
2018-11-23T07:03:07.895Z,101253.44
2018-11-23T07:05:37.050Z,101256.69
2018-11-23T07:08:06.908Z,101266.36
2018-11-23T07:10:35.946Z,101260.27
2018-11-23T07:13:05.387Z,101260.98
2018-11-23T07:15:34.401Z,101261.95
2018-11-23T07:18:03.968Z,101265.89
2018-11-23T07:20:33.113Z,101272.58
2018-11-23T07:23:02.105Z,101265.77
2018-11-23T07:25:31.189Z,101265.28
2018-11-23T07:28:00.352Z,101268.27
2018-11-23T07:30:29.948Z,101266.83
2018-11-23T07:32:59.027Z,101266.36
2018-11-23T07:35:28.176Z,101263.73
2018-11-23T07:37:57.290Z,101268.86
2018-11-23T07:40:40.105Z,101270.18
2018-11-23T07:43:09.133Z,101269.34
2018-11-23T07:45:38.225Z,101269.47
2018-11-23T07:48:08.188Z,101270.42
2018-11-23T07:50:37.272Z,101275.54
2018-11-23T07:53:06.537Z,101278.17
2018-11-23T07:55:35.887Z,101274.22
2018-11-23T07:58:05.774Z,101270.04
2018-11-23T08:00:34.995Z,101282.81
2018-11-23T08:03:04.011Z,101270.98
2018-11-23T08:05:37.490Z,101264.87
2018-11-23T08:08:12.935Z,101266.98
2018-11-23T08:10:42.849Z,101266.61
2018-11-23T08:13:12.004Z,101268.52
2018-11-23T08:15:41.578Z,101266.35
2018-11-23T08:18:11.310Z,101259.06
2018-11-23T08:20:42.708Z,101265.73
2018-11-23T08:23:11.740Z,101261.40
2018-11-23T08:25:43.438Z,101257.91
2018-11-23T08:28:12.737Z,101260.77
2018-11-23T08:30:42.413Z,101262.31
2018-11-23T08:33:12.947Z,101254.31
2018-11-23T08:35:42.021Z,101253.56
2018-11-23T08:38:12.595Z,101249.45
2018-11-23T08:40:41.916Z,101238.80
2018-11-23T08:43:11.684Z,101241.27
2018-11-23T08:45:41.373Z,101255.57
2018-11-23T08:48:15.905Z,101257.93
2018-11-23T08:50:44.925Z,101270.45
2018-11-23T08:53:14.058Z,101270.62
2018-11-23T08:55:43.197Z,101274.51
2018-11-23T08:58:19.893Z,101260.56
2018-11-23T09:00:49.168Z,101257.39
2018-11-23T09:03:29.338Z,101259.14
2018-11-23T09:05:58.497Z,101254.05
2018-11-23T09:08:41.775Z,101251.59
2018-11-23T09:11:11.047Z,101256.68
2018-11-23T09:13:46.596Z,101250.37
2018-11-23T09:16:38.158Z,101254.28
2018-11-23T09:19:08.465Z,101245.16
2018-11-23T09:21:38.242Z,101248.22
2018-11-23T09:24:17.314Z,101242.06
2018-11-23T09:26:54.012Z,101239.64
2018-11-23T09:29:24.554Z,101239.91
2018-11-23T09:34:57.785Z,101254.65
2018-11-23T09:37:27.046Z,101250.37
2018-11-23T09:40:16.385Z,101252.65
2018-11-23T09:42:48.388Z,101247.47
2018-11-23T09:45:24.203Z,101254.48
2018-11-23T09:48:10.500Z,101251.27
2018-11-23T09:50:41.554Z,101251.57
2018-11-23T09:53:24.842Z,101246.91
2018-11-23T09:56:10.761Z,101250.66
2018-11-23T09:58:43.637Z,101251.42
2018-11-23T10:01:12.107Z,101242.32
2018-11-23T10:03:48.015Z,101249.39
2018-11-23T10:06:18.171Z,101241.31
2018-11-23T10:08:53.832Z,101235.80
2018-11-23T10:11:24.915Z,101232.92
2018-11-23T10:13:54.492Z,101231.84
2018-11-23T10:16:23.655Z,101237.89
2018-11-23T10:19:18.076Z,101231.53
2018-11-23T10:21:48.724Z,101233.45
2018-11-23T10:24:17.902Z,101227.78
2018-11-23T10:27:02.157Z,101228.86
2018-11-23T10:29:31.405Z,101223.39
2018-11-23T10:32:00.996Z,101214.14
2018-11-23T10:34:38.921Z,101206.14
2018-11-23T10:37:20.057Z,101206.72
2018-11-23T10:39:49.714Z,101202.38
2018-11-23T10:42:24.057Z,101192.87
2018-11-23T10:44:55.134Z,101190.98
2018-11-23T10:47:43.145Z,101184.81
2018-11-23T10:50:45.458Z,101180.94
2018-11-23T10:53:20.059Z,101175.40
2018-11-23T10:55:50.189Z,101175.48
2018-11-23T10:58:29.682Z,101167.76
2018-11-23T11:01:04.758Z,101169.94
2018-11-23T11:03:42.903Z,101163.02
2018-11-23T11:06:18.131Z,101169.38
2018-11-23T11:08:56.430Z,101171.55
2018-11-23T11:11:26.608Z,101171.42
2018-11-23T11:14:05.960Z,101162.82
2018-11-23T11:16:36.295Z,101156.23
2018-11-23T11:19:26.414Z,101159.23
2018-11-23T11:21:55.429Z,101157.60
2018-11-23T11:24:24.442Z,101147.05
2018-11-23T11:26:53.696Z,101146.08
2018-11-23T11:29:22.946Z,101144.28
2018-11-23T11:31:52.176Z,101146.64
2018-11-23T11:34:21.573Z,101149.31
2018-11-23T11:36:50.893Z,101141.01
2018-11-23T11:39:28.163Z,101139.19
2018-11-23T11:41:57.170Z,101141.38
2018-11-23T11:44:26.864Z,101141.70
2018-11-23T11:46:56.256Z,101138.35
2018-11-23T11:49:25.408Z,101132.20
2018-11-23T11:51:54.715Z,101130.98
2018-11-23T11:54:29.819Z,101121.16
2018-11-23T11:56:59.547Z,101117.09
2018-11-23T11:59:34.043Z,101113.60
2018-11-23T12:02:03.113Z,101104.02
2018-11-23T12:04:32.425Z,101099.09
2018-11-23T12:07:02.122Z,101099.35
2018-11-23T12:09:40.876Z,101101.64
2018-11-23T12:12:09.967Z,101102.69
2018-11-23T12:14:39.119Z,101105.57
2018-11-23T12:17:08.448Z,101096.64
2018-11-23T12:19:40.849Z,101095.23
2018-11-23T12:22:11.051Z,101092.95
2018-11-23T12:24:40.490Z,101093.95
2018-11-23T12:27:09.544Z,101092.03
2018-11-23T12:29:40.960Z,101087.09
2018-11-23T12:32:10.345Z,101083.45
2018-11-23T12:34:39.577Z,101080.83
2018-11-23T12:37:09.411Z,101068.95
2018-11-23T12:39:46.017Z,101064.98
2018-11-23T12:42:15.190Z,101063.61
2018-11-23T12:44:44.530Z,101064.64
2018-11-23T12:47:13.672Z,101068.64
2018-11-23T12:49:45.825Z,101066.43
2018-11-23T12:52:15.014Z,101062.59
2018-11-23T12:54:44.562Z,101057.98
2018-11-23T12:57:17.872Z,101052.66
2018-11-23T12:59:48.492Z,101049.61
2018-11-23T13:02:18.253Z,101048.62
2018-11-23T13:04:48.929Z,101051.19
2018-11-23T13:07:17.978Z,101052.12
2018-11-23T13:09:54.229Z,101043.42
2018-11-23T13:12:23.233Z,101046.09
2018-11-23T13:14:52.167Z,101043.03
2018-11-23T13:17:21.331Z,101042.05
2018-11-23T13:19:50.355Z,101036.30
2018-11-23T13:22:19.496Z,101034.86
2018-11-23T13:24:48.526Z,101033.73
2018-11-23T13:27:18.388Z,101029.44
2018-11-23T13:29:48.356Z,101024.72
2018-11-23T13:32:17.819Z,101029.47
2018-11-23T13:34:47.157Z,101029.05
2018-11-23T13:37:16.171Z,101025.81
2018-11-23T13:39:53.702Z,101021.27
2018-11-23T13:42:22.787Z,101019.98
2018-11-23T13:44:51.876Z,101015.06
2018-11-23T13:47:20.834Z,101020.34
2018-11-23T13:49:57.915Z,101016.38
2018-11-23T13:52:26.999Z,101009.78
2018-11-23T13:54:56.439Z,100996.81
2018-11-23T13:57:25.515Z,100996.71
2018-11-23T14:00:11.420Z,100995.64
2018-11-23T14:02:40.422Z,100994.77
2018-11-23T14:05:12.029Z,100991.59
2018-11-23T14:07:41.405Z,100979.11
2018-11-23T14:10:13.932Z,100982.55
2018-11-23T14:12:43.554Z,100985.00
2018-11-23T14:15:18.185Z,100983.12
2018-11-23T14:17:48.583Z,100989.03
2018-11-23T14:20:20.523Z,100984.66
2018-11-23T14:22:49.965Z,100980.52
2018-11-23T14:25:20.671Z,100975.66
2018-11-23T14:27:50.672Z,100967.94
2018-11-23T14:30:24.597Z,100969.18
2018-11-23T14:32:53.894Z,100965.91
2018-11-23T14:35:25.748Z,100961.91
2018-11-23T14:37:55.763Z,100962.23
2018-11-23T14:40:32.681Z,100959.56
2018-11-23T14:43:01.997Z,100971.53
2018-11-23T14:45:32.919Z,100968.84
2018-11-23T14:48:05.196Z,100974.03
2018-11-23T14:50:48.380Z,100971.53
2018-11-23T14:53:17.949Z,100976.91
2018-11-23T14:55:47.308Z,100977.45
2018-11-23T14:58:16.636Z,100984.37
2018-11-23T15:00:53.855Z,100980.95
2018-11-23T15:03:23.492Z,100985.53
2018-11-23T15:05:52.887Z,100983.38
2018-11-23T15:08:22.202Z,100975.22
2018-11-23T15:10:51.532Z,100977.92
2018-11-23T15:13:20.751Z,100980.41
2018-11-23T15:15:50.081Z,100981.17
2018-11-23T15:18:19.265Z,100976.57
2018-11-23T15:20:51.159Z,100975.25
2018-11-23T15:23:21.231Z,100977.85
2018-11-23T15:25:50.488Z,100984.08
2018-11-23T15:28:19.822Z,100979.34
2018-11-23T15:30:49.973Z,100979.91
2018-11-23T15:33:19.672Z,100983.46
2018-11-23T15:35:48.955Z,100980.34
2018-11-23T15:38:20.621Z,100979.55
2018-11-23T15:40:57.324Z,100976.09
2018-11-23T15:43:26.432Z,100973.95
2018-11-23T15:45:55.527Z,100970.05
2018-11-23T15:48:24.768Z,100964.49
2018-11-23T15:50:53.988Z,100967.53
2018-11-23T15:53:23.042Z,100969.95
2018-11-23T15:55:52.110Z,100967.58
2018-11-23T15:58:21.878Z,100968.33
2018-11-23T16:00:53.276Z,100971.06
2018-11-23T16:03:22.394Z,100976.45
2018-11-23T16:05:51.860Z,100978.51
2018-11-23T16:08:21.344Z,100985.84
2018-11-23T16:10:50.468Z,100978.81
2018-11-23T16:13:19.740Z,100979.19
2018-11-23T16:15:49.765Z,100977.77
2018-11-23T16:18:18.756Z,100979.05
2018-11-23T16:20:48.219Z,100981.05
2018-11-23T16:23:19.673Z,100979.05
2018-11-23T16:25:49.635Z,100986.61
2018-11-23T16:28:18.889Z,100984.25
2018-11-23T16:30:49.389Z,100989.97
2018-11-23T16:33:20.179Z,100987.28
2018-11-23T16:35:49.255Z,100983.05
2018-11-23T16:38:19.708Z,100982.97
2018-11-23T16:40:50.518Z,100974.65
2018-11-23T16:43:19.604Z,100978.20
2018-11-23T16:45:48.823Z,100973.84
2018-11-23T16:48:18.799Z,100973.28
2018-11-23T16:50:48.080Z,100979.31
2018-11-23T16:53:17.455Z,100983.38
2018-11-23T16:55:46.567Z,100990.05
2018-11-23T16:58:16.314Z,100980.05
2018-11-23T17:00:46.778Z,100971.41
2018-11-23T17:03:18.279Z,100978.27
2018-11-23T17:05:49.246Z,100978.55
2018-11-23T17:08:18.292Z,100972.58
2018-11-23T17:10:47.294Z,100966.63
2018-11-23T17:13:16.512Z,100963.63
2018-11-23T17:15:45.736Z,100962.79
2018-11-23T17:18:14.731Z,100964.11
2018-11-23T17:20:44.249Z,100961.63
2018-11-23T17:23:14.147Z,100960.63
2018-11-23T17:25:43.234Z,100958.30
2018-11-23T17:28:12.917Z,100953.79
2018-11-23T17:30:42.031Z,100954.69
2018-11-23T17:33:11.171Z,100953.85
2018-11-23T17:35:40.307Z,100953.73
2018-11-23T17:38:09.511Z,100961.77
2018-11-23T17:40:40.134Z,100962.66
2018-11-23T17:43:09.809Z,100961.14
2018-11-23T17:45:39.295Z,100955.66
2018-11-23T17:48:08.451Z,100952.81
2018-11-23T17:50:38.490Z,100951.30
2018-11-23T17:53:07.623Z,100950.61
2018-11-23T17:55:36.645Z,100947.97
2018-11-23T17:58:06.007Z,100943.54
2018-11-23T18:00:39.084Z,100946.71
2018-11-23T18:03:05.298Z,100944.38
2018-11-23T18:05:35.156Z,100948.61
2018-11-23T18:08:04.759Z,100940.97
2018-11-23T18:10:34.854Z,100940.40
2018-11-23T18:13:04.059Z,100942.77
2018-11-23T18:15:34.205Z,100931.66
2018-11-23T18:18:04.547Z,100930.70
2018-11-23T18:20:34.150Z,100933.61
2018-11-23T18:23:03.862Z,100920.85
2018-11-23T18:25:34.796Z,100927.16
2018-11-23T18:28:03.951Z,100924.73
2018-11-23T18:30:34.001Z,100921.05
2018-11-23T18:33:05.781Z,100921.48
2018-11-23T18:35:34.923Z,100915.64
2018-11-23T18:38:03.979Z,100909.90
2018-11-23T18:40:37.229Z,100908.58
2018-11-23T18:43:02.395Z,100910.47
2018-11-23T18:45:31.840Z,100904.84
2018-11-23T18:48:01.076Z,100902.00
2018-11-23T18:50:30.195Z,100898.53
2018-11-23T18:52:59.443Z,100897.15
2018-11-23T18:55:28.581Z,100901.58
2018-11-23T18:57:57.710Z,100902.48
2018-11-23T19:00:27.043Z,100893.84
2018-11-23T19:02:58.201Z,100886.48
2018-11-23T19:05:28.514Z,100886.33
2018-11-23T19:07:57.720Z,100886.06
2018-11-23T19:10:27.662Z,100890.06
2018-11-23T19:12:56.804Z,100880.79
2018-11-23T19:15:26.011Z,100878.42
2018-11-23T19:17:55.539Z,100879.05
2018-11-23T19:20:24.834Z,100874.33
2018-11-23T19:22:55.068Z,100875.53
2018-11-23T19:25:24.205Z,100880.79
2018-11-23T19:27:53.509Z,100871.84
2018-11-23T19:30:28.806Z,100869.95
2018-11-23T19:32:53.943Z,100857.84
2018-11-23T19:35:23.077Z,100861.26
2018-11-23T19:37:52.261Z,100852.25
2018-11-23T19:40:21.360Z,100853.29
2018-11-23T19:42:50.535Z,100850.87
2018-11-23T19:45:19.719Z,100838.52
2018-11-23T19:47:48.949Z,100834.25
2018-11-23T19:50:18.624Z,100830.89
2018-11-23T19:52:47.858Z,100830.14
2018-11-23T19:55:17.919Z,100826.34
2018-11-23T19:57:47.289Z,100825.64
2018-11-23T20:00:21.610Z,100817.36
2018-11-23T20:02:50.833Z,100815.34
2018-11-23T20:05:20.094Z,100809.87
2018-11-23T20:07:50.703Z,100802.23
2018-11-23T20:10:20.914Z,100792.45
2018-11-23T20:12:52.273Z,100784.38
2018-11-23T20:15:21.450Z,100783.07
2018-11-23T20:17:50.580Z,100784.66
2018-11-23T20:20:22.009Z,100785.58
2018-11-23T20:22:51.450Z,100786.70
2018-11-23T20:25:21.325Z,100780.91
2018-11-23T20:27:51.758Z,100787.13
2018-11-23T20:30:21.056Z,100785.13
2018-11-23T20:32:50.154Z,100782.77
2018-11-23T20:35:20.449Z,100788.67
2018-11-23T20:37:49.582Z,100786.88
2018-11-23T20:40:19.858Z,100786.28
2018-11-23T20:42:49.268Z,100778.73
2018-11-23T20:45:18.461Z,100788.38
2018-11-23T20:47:47.563Z,100782.91
2018-11-23T20:50:17.463Z,100787.06
2018-11-23T20:52:46.573Z,100793.21
2018-11-23T20:55:18.834Z,100787.74
2018-11-23T20:57:47.958Z,100783.91
2018-11-23T21:00:18.400Z,100783.59
2018-11-23T21:02:48.660Z,100789.16
2018-11-23T21:05:18.998Z,100784.32
2018-11-23T21:07:48.027Z,100782.31
2018-11-23T21:10:27.652Z,100781.27
2018-11-23T21:12:56.812Z,100777.73
2018-11-23T21:15:27.954Z,100767.59
2018-11-23T21:17:57.870Z,100766.69
2018-11-23T21:20:27.769Z,100760.38
2018-11-23T21:22:56.946Z,100755.63
2018-11-23T21:25:26.666Z,100754.22
2018-11-23T21:27:56.601Z,100748.75
2018-11-23T21:30:25.703Z,100745.91
2018-11-23T21:32:55.956Z,100745.48
2018-11-23T21:35:25.325Z,100737.23
2018-11-23T21:37:54.479Z,100735.49
2018-11-23T21:40:23.986Z,100734.84
2018-11-23T21:42:53.089Z,100731.67
2018-11-23T21:45:22.298Z,100734.78
2018-11-23T21:47:51.430Z,100728.83
2018-11-23T21:50:25.539Z,100728.47
2018-11-23T21:52:50.608Z,100727.59
2018-11-23T21:55:29.273Z,100728.78
2018-11-23T21:57:58.321Z,100726.96
2018-11-23T22:00:27.414Z,100728.49
2018-11-23T22:02:56.410Z,100729.80
2018-11-23T22:05:25.756Z,100728.85
2018-11-23T22:07:54.883Z,100726.85
2018-11-23T22:10:24.028Z,100725.80
2018-11-23T22:12:53.163Z,100722.48
2018-11-23T22:15:23.441Z,100720.28
2018-11-23T22:17:54.670Z,100719.25
2018-11-23T22:20:24.202Z,100714.89
2018-11-23T22:22:55.445Z,100715.33
2018-11-23T22:25:24.874Z,100714.95
2018-11-23T22:27:54.176Z,100716.16
2018-11-23T22:30:28.523Z,100715.53
2018-11-23T22:32:57.907Z,100706.95
2018-11-23T22:35:28.187Z,100709.28
2018-11-23T22:37:57.352Z,100714.99
2018-11-23T22:40:26.747Z,100711.37
2018-11-23T22:42:57.316Z,100704.61
2018-11-23T22:45:26.406Z,100702.09
2018-11-23T22:47:55.503Z,100709.07
2018-11-23T22:50:25.032Z,100708.17
2018-11-23T22:52:54.274Z,100700.00
2018-11-23T22:55:23.368Z,100697.16
2018-11-23T22:57:52.421Z,100699.27
2018-11-23T23:00:28.815Z,100692.48
2018-11-23T23:02:58.318Z,100687.61
2018-11-23T23:05:27.534Z,100687.02
2018-11-23T23:07:56.929Z,100677.50
2018-11-23T23:10:26.067Z,100678.69
2018-11-23T23:12:55.302Z,100677.86
2018-11-23T23:15:24.455Z,100666.37
2018-11-23T23:17:54.118Z,100661.59
2018-11-23T23:20:23.963Z,100654.53
2018-11-23T23:22:53.081Z,100656.44
2018-11-23T23:25:22.232Z,100652.80
2018-11-23T23:27:51.381Z,100658.67
2018-11-23T23:30:20.593Z,100659.03
2018-11-23T23:32:50.740Z,100652.40
2018-11-23T23:35:20.219Z,100643.47
2018-11-23T23:37:49.282Z,100647.69
2018-11-23T23:40:18.915Z,100640.75
2018-11-23T23:42:48.620Z,100644.70
2018-11-23T23:45:18.558Z,100646.02
2018-11-23T23:47:47.713Z,100640.91
2018-11-23T23:50:18.030Z,100642.78
2018-11-23T23:52:47.120Z,100633.63
2018-11-23T23:55:16.289Z,100637.30
2018-11-23T23:57:46.264Z,100631.35
